Time;durP1;ratioP1;P1;durP2;ratioP2;P2;SDS_P1;SDS_P2;PMS_P1;PMS_P2;Temp;Humidity;BMP_temperature;BMP_pressure;BME280_temperature;BME280_humidity;BME280_pressure;Samples;Min_cycle;Max_cycle;Signal;HPM_P1;HPM_P2
2022/05/08 00:01:12;;;;;;;22.30;16.75;;;;;;;11.12;98.32;68011.16;6037713;23;20019;-87
2022/05/08 00:03:37;;;;;;;25.73;16.08;;;;;;;11.16;98.46;68018.34;6017258;23;20162;-86
2022/05/08 00:06:07;;;;;;;23.85;16.05;;;;;;;11.20;98.19;68017.56;6041298;23;20105;-86
2022/05/08 00:08:32;;;;;;;19.48;16.10;;;;;;;11.11;98.13;68010.03;6069626;23;20017;-86
2022/05/08 00:10:57;;;;;;;21.00;15.32;;;;;;;11.14;97.45;68013.44;6066707;23;20097;-86
2022/05/08 00:13:23;;;;;;;23.10;15.68;;;;;;;11.09;97.55;68005.66;6064308;23;20015;-86
2022/05/08 00:15:48;;;;;;;21.73;14.90;;;;;;;10.99;97.41;67994.88;6065197;23;20025;-87
2022/05/08 00:18:13;;;;;;;21.05;14.60;;;;;;;;;;6064312;23;20030;-87
2022/05/08 00:20:39;;;;;;;23.63;15.80;;;;;;;;;;6066900;23;20102;-87
2022/05/08 00:23:04;;;;;;;21.85;15.65;;;;;;;10.95;97.46;67992.97;6065399;23;20516;-86
2022/05/08 00:25:29;;;;;;;22.77;15.00;;;;;;;10.85;97.68;67978.97;6066857;23;20678;-87
2022/05/08 00:27:55;;;;;;;23.25;15.50;;;;;;;10.80;98.21;67973.31;6069972;23;20111;-87
2022/05/08 00:30:20;;;;;;;24.02;16.15;;;;;;;;;;6071214;23;20011;-88
2022/05/08 00:32:45;;;;;;;22.88;15.82;;;;;;;10.79;98.22;67972.75;6070917;23;20046;-87
2022/05/08 00:35:11;;;;;;;20.60;14.68;;;;;;;10.79;98.36;67972.75;6072574;23;20015;-87
2022/05/08 00:37:40;;;;;;;22.63;15.07;;;;;;;10.82;98.38;67980.91;6073052;23;20661;-87
2022/05/08 00:40:06;;;;;;;22.48;15.30;;;;;;;10.82;98.35;67976.13;6077000;23;20022;-86
2022/05/08 00:42:31;;;;;;;21.05;15.02;;;;;;;10.81;98.79;67974.44;6083516;23;20102;-85
2022/05/08 00:45:00;;;;;;;21.67;15.43;;;;;;;10.90;97.99;67984.06;6079280;23;20022;-86
2022/05/08 00:47:25;;;;;;;23.33;15.30;;;;;;;10.88;98.42;67977.06;6065143;23;20019;-86
2022/05/08 00:49:51;;;;;;;25.75;16.83;;;;;;;10.77;99.12;67969.91;6066223;23;20254;-85
2022/05/08 00:52:17;;;;;;;22.83;15.52;;;;;;;10.74;99.61;67966.50;6087423;23;20066;-85
2022/05/08 00:54:42;;;;;;;20.48;16.30;;;;;;;;;;6064430;23;20027;-85
2022/05/08 00:57:09;;;;;;;23.33;15.82;;;;;;;10.81;99.21;67979.75;6063401;23;20342;-85
2022/05/08 00:59:34;;;;;;;25.00;16.38;;;;;;;;;;6060870;23;20334;-85
2022/05/08 01:02:00;;;;;;;22.33;16.40;;;;;;;10.68;99.76;67959.69;6061627;23;20018;-84
2022/05/08 01:04:25;;;;;;;20.48;14.82;;;;;;;10.77;99.11;67969.91;6061691;23;20238;-84
2022/05/08 01:06:50;;;;;;;21.88;15.13;;;;;;;10.74;98.92;67971.81;6060816;23;20026;-85
2022/05/08 01:09:18;;;;;;;24.13;15.98;;;;;;;10.70;99.18;67965.16;6066144;23;20015;-85
2022/05/08 01:11:44;;;;;;;23.05;15.38;;;;;;;10.62;98.50;67953.44;6085823;23;20055;-84
2022/05/08 01:14:09;;;;;;;21.10;14.18;;;;;;;10.60;97.93;67951.16;6063864;23;20019;-85
2022/05/08 01:16:34;;;;;;;23.33;14.35;;;;;;;10.56;96.05;67947.19;6062917;23;20027;-86
2022/05/08 01:19:00;;;;;;;21.65;14.63;;;;;;;10.48;95.47;67940.78;6063198;23;20022;-84
2022/05/08 01:21:42;;;;;;;20.02;14.35;;;;;;;10.52;95.32;67945.31;6061723;23;20102;-85
2022/05/08 01:24:14;;;;;;;22.92;12.75;;;;;;;10.48;95.07;67938.13;6062561;23;20014;-85
2022/05/08 01:26:39;;;;;;;23.05;13.20;;;;;;;10.47;94.93;67939.06;6061364;23;20027;-85
2022/05/08 01:29:05;;;;;;;19.58;11.85;;;;;;;;;;6061550;23;20045;-85
2022/05/08 01:31:31;;;;;;;21.92;12.60;;;;;;;10.32;95.94;67923.19;6059791;23;20094;-84
2022/05/08 01:33:56;;;;;;;22.73;14.38;;;;;;;10.24;96.41;67910.84;6063969;23;20105;-84
2022/05/08 01:36:22;;;;;;;21.67;13.82;;;;;;;10.21;97.04;67912.78;6060170;23;20050;-84
2022/05/08 01:38:47;;;;;;;21.00;13.52;;;;;;;;;;6065554;23;20405;-84
2022/05/08 01:41:12;;;;;;;20.95;13.00;;;;;;;10.21;97.15;67907.47;6060847;23;20019;-85
2022/05/08 01:43:38;;;;;;;23.08;12.70;;;;;;;10.20;97.04;67906.91;6062122;23;20018;-85
2022/05/08 01:46:04;;;;;;;23.85;13.40;;;;;;;10.22;97.23;67908.59;6063273;23;20572;-84
2022/05/08 01:48:30;;;;;;;21.70;12.80;;;;;;;10.15;96.74;67901.78;6061173;23;20464;-84
2022/05/08 01:50:56;;;;;;;24.70;13.70;;;;;;;;;;6062051;23;20011;-85
2022/05/08 01:53:25;;;;;;;22.63;13.35;;;;;;;;;;6060038;23;20026;-84
2022/05/08 01:55:55;;;;;;;21.77;13.07;;;;;;;10.00;97.75;67889.53;6061671;23;20081;-84
2022/05/08 01:58:22;;;;;;;26.63;13.80;;;;;;;;;;6061150;23;20393;-86
2022/05/08 02:00:48;;;;;;;24.23;12.43;;;;;;;10.04;97.75;67891.97;6061963;23;20515;-87
2022/05/08 02:03:14;;;;;;;25.52;12.25;;;;;;;10.07;96.90;67897.47;6058968;23;20588;-87
2022/05/08 02:05:41;;;;;;;25.45;13.02;;;;;;;9.99;97.18;67883.66;6057056;23;20023;-86
2022/05/08 02:08:07;;;;;;;18.10;11.30;;;;;;;9.98;96.74;67884.59;6060894;23;20094;-87
2022/05/08 02:10:33;;;;;;;21.85;12.23;;;;;;;9.91;96.74;67879.88;6059828;23;20019;-88
2022/05/08 02:12:58;;;;;;;20.83;11.60;;;;;;;9.83;97.38;67865.50;6060006;23;20641;-86
2022/05/08 02:15:29;;;;;;;21.10;11.50;;;;;;;;;;6062564;23;20361;-85
2022/05/08 02:17:54;;;;;;;25.58;10.60;;;;;;;9.90;95.98;67873.44;6064179;23;20338;-85
2022/05/08 02:20:19;;;;;;;22.90;11.23;;;;;;;9.74;96.38;67855.84;6063752;23;20018;-86
2022/05/08 02:22:45;;;;;;;19.55;11.73;;;;;;;9.73;96.15;67856.81;6060478;23;20061;-87
2022/05/08 02:25:11;;;;;;;24.05;11.25;;;;;;;9.68;96.78;67849.63;6084222;23;20066;-85
2022/05/08 02:27:41;;;;;;;25.75;10.82;;;;;;;9.61;96.74;67841.69;6057199;23;20015;-85
2022/05/08 02:30:10;;;;;;;21.48;10.68;;;;;;;9.65;96.60;67848.88;6062727;23;20022;-86
2022/05/08 02:32:37;;;;;;;20.08;9.38;;;;;;;9.62;96.36;67842.25;6083642;23;20070;-85
2022/05/08 02:35:04;;;;;;;22.25;8.75;;;;;;;9.58;96.27;67840.94;6085460;23;20021;-86
2022/05/08 02:37:29;;;;;;;22.98;9.43;;;;;;;9.51;96.38;67833.00;6059723;23;20374;-85
2022/05/08 02:39:55;;;;;;;21.80;9.68;;;;;;;9.51;96.23;67833.00;6059870;23;20101;-85
2022/05/08 02:42:20;;;;;;;24.23;9.18;;;;;;;9.43;96.24;67821.25;6059117;23;20019;-85
2022/05/08 02:44:45;;;;;;;24.67;9.55;;;;;;;9.37;96.22;67814.47;6060518;23;20737;-85
2022/05/08 02:47:11;;;;;;;26.60;9.95;;;;;;;9.38;96.16;67820.91;6061570;23;20146;-85
2022/05/08 02:49:36;;;;;;;21.42;9.13;;;;;;;9.30;96.66;67811.84;6061461;23;20022;-86
2022/05/08 02:52:02;;;;;;;23.88;9.13;;;;;;;9.30;96.45;67809.19;6063719;23;20410;-86
2022/05/08 02:54:27;;;;;;;23.63;8.50;;;;;;;9.37;96.09;67814.47;6084195;23;20030;-85
2022/05/08 02:59:36;;;;;;;25.00;9.13;;;;;;;9.15;96.69;67790.66;6062561;23;20117;-85
2022/05/08 03:02:02;;;;;;;19.40;8.23;;;;;;;9.22;96.68;67798.03;6061616;23;20481;-85
2022/05/08 03:04:27;;;;;;;25.00;8.60;;;;;;;9.20;96.13;67801.63;6061647;23;20026;-85
2022/05/08 03:06:53;;;;;;;23.95;8.98;;;;;;;9.08;96.64;67782.72;6063603;23;20030;-85
2022/05/08 03:09:18;;;;;;;20.30;8.05;;;;;;;9.09;97.35;67789.19;6064218;23;20392;-85
2022/05/08 03:11:44;;;;;;;24.92;9.00;;;;;;;8.99;97.57;67778.41;6063186;23;20018;-85
2022/05/08 03:14:09;;;;;;;22.75;9.00;;;;;;;8.88;97.85;67760.06;6064579;23;20022;-85
2022/05/08 03:16:35;;;;;;;28.63;9.82;;;;;;;8.88;98.14;67765.38;6061383;23;20034;-85
2022/05/08 03:19:00;;;;;;;22.73;9.05;;;;;;;8.89;97.92;67766.50;6063104;23;20042;-85
2022/05/08 03:21:26;;;;;;;23.85;9.07;;;;;;;8.92;97.62;67769.91;6063396;23;20398;-85
2022/05/08 03:23:51;;;;;;;26.33;9.63;;;;;;;8.79;97.94;67750.44;6064316;23;20011;-86
2022/05/08 03:26:19;;;;;;;23.42;8.63;;;;;;;8.82;98.22;67757.03;6008453;23;20052;-86
2022/05/08 03:28:45;;;;;;;25.88;8.25;;;;;;;8.76;98.31;67750.25;5979716;23;20027;-86
2022/05/08 03:31:11;;;;;;;28.88;10.32;;;;;;;8.57;98.96;67726.06;5979813;23;20027;-85
2022/05/08 03:33:37;;;;;;;28.33;9.55;;;;;;;8.58;98.93;67727.22;5979110;23;20028;-85
2022/05/08 03:36:04;;;;;;;22.42;9.20;;;;;;;8.57;98.70;67726.66;5978309;23;20020;-86
2022/05/08 03:38:30;;;;;;;25.25;8.38;;;;;;;8.59;98.83;67731.56;6003171;23;20344;-85
2022/05/08 03:40:56;;;;;;;24.02;8.35;;;;;;;8.59;98.30;67733.63;6003117;23;20030;-86
2022/05/08 03:43:21;;;;;;;25.08;7.72;;;;;;;8.50;98.76;67718.72;6003185;23;20580;-86
2022/05/08 03:45:50;;;;;;;24.73;9.23;;;;;;;8.34;99.54;67701.13;5979037;23;20099;-86
2022/05/08 03:48:20;;;;;;;26.30;8.68;;;;;;;8.27;100.00;67692.63;6001056;23;20094;-86
2022/05/08 03:50:46;;;;;;;21.83;8.73;;;;;;;8.28;100.00;67696.97;6004702;23;20439;-86
2022/05/08 03:53:12;;;;;;;21.15;8.57;;;;;;;8.21;100.00;67685.84;6005166;23;20067;-85
2022/05/08 03:55:37;;;;;;;26.77;9.48;;;;;;;8.25;100.00;67690.38;5930380;24;20017;-85
2022/05/08 03:58:03;;;;;;;22.88;8.07;;;;;;;8.30;99.87;67696.03;6005356;23;20037;-85
2022/05/08 04:00:28;;;;;;;30.35;8.48;;;;;;;8.29;100.00;67698.13;6037269;23;20029;-84
2022/05/08 04:02:54;;;;;;;24.42;8.10;;;;;;;8.10;100.00;67679.81;6035206;23;20488;-84
2022/05/08 04:05:20;;;;;;;21.42;8.43;;;;;;;8.16;100.00;67680.72;6036905;23;20052;-87
2022/05/08 04:07:46;;;;;;;22.05;8.60;;;;;;;8.13;100.00;67680.00;6045642;23;20015;-86
2022/05/08 04:10:15;;;;;;;21.65;8.18;;;;;;;8.11;100.00;67680.38;6032655;23;20077;-86
2022/05/08 04:12:42;;;;;;;27.08;9.50;;;;;;;8.16;100.00;67685.47;6057275;23;20023;-85
2022/05/08 04:16:15;;;;;;;24.17;8.18;;;;;;;8.08;100.00;67677.53;6032874;23;20020;-85
2022/05/08 04:17:53;;;;;;;26.55;8.10;;;;;;;8.01;100.00;67666.41;6024174;23;20041;-85
2022/05/08 04:20:19;;;;;;;22.95;6.93;;;;;;;8.02;100.00;67670.19;6009493;23;20080;-85
2022/05/08 04:25:29;;;;;;;28.15;9.25;;;;;;;8.00;100.00;67663.19;6061607;23;20102;-86
2022/05/08 04:27:54;;;;;;;22.63;9.13;;;;;;;7.93;100.00;67654.69;6059967;23;20039;-86
2022/05/08 04:30:19;;;;;;;23.10;9.35;;;;;;;7.93;100.00;67654.69;6060992;23;20011;-86
2022/05/08 04:32:45;;;;;;;25.10;8.65;;;;;;;7.96;100.00;67660.75;6061949;23;20027;-86
2022/05/08 04:35:10;;;;;;;28.63;9.73;;;;;;;7.94;100.00;67658.47;6060351;23;20015;-86
2022/05/08 04:37:35;;;;;;;28.98;9.65;;;;;;;7.92;100.00;67654.13;6058980;23;20105;-86
2022/05/08 04:40:01;;;;;;;23.17;9.05;;;;;;;8.02;100.00;67665.44;6062255;23;20103;-86
2022/05/08 04:42:26;;;;;;;24.48;9.43;;;;;;;7.90;100.00;67652.41;6060577;23;20022;-86
2022/05/08 04:44:51;;;;;;;26.50;8.65;;;;;;;7.86;100.00;67650.56;6062578;23;20501;-85
2022/05/08 04:47:17;;;;;;;24.63;9.85;;;;;;;7.94;100.00;67661.13;6059787;23;20019;-85
2022/05/08 04:49:42;;;;;;;24.92;8.38;;;;;;;;;;6061423;23;20425;-86
2022/05/08 04:52:07;;;;;;;28.02;8.90;;;;;;;7.96;100.00;67663.38;6060736;23;20409;-85
2022/05/08 04:54:33;;;;;;;24.80;8.98;;;;;;;7.99;100.00;67664.69;6061904;23;20019;-85
2022/05/08 04:57:00;;;;;;;21.10;7.72;;;;;;;8.01;100.00;67664.31;6061507;23;20015;-87
2022/05/08 04:59:26;;;;;;;22.08;8.05;;;;;;;7.99;100.00;67666.78;6059429;23;20461;-86
2022/05/08 05:01:51;;;;;;;24.60;8.45;;;;;;;8.07;100.00;67676.41;6061992;23;20026;-86
2022/05/08 05:04:17;;;;;;;24.35;8.77;;;;;;;8.16;100.00;67685.47;6062696;23;20453;-87
2022/05/08 05:06:43;;;;;;;22.50;9.07;;;;;;;8.15;100.00;67679.59;6036176;23;20095;-85
2022/05/08 05:09:08;;;;;;;24.70;8.57;;;;;;;8.15;100.00;67682.25;6034319;23;20023;-85
2022/05/08 05:11:34;;;;;;;27.13;8.30;;;;;;;8.08;100.00;67674.88;6033311;23;20015;-85
2022/05/08 05:13:59;;;;;;;20.83;8.30;;;;;;;8.15;99.90;67684.91;6033478;23;20429;-86
2022/05/08 05:16:24;;;;;;;19.85;7.60;;;;;;;8.19;99.20;67686.78;6031843;23;20037;-86
2022/05/08 05:18:50;;;;;;;21.42;8.65;;;;;;;8.16;99.02;67680.16;6035771;23;20015;-85
2022/05/08 05:21:15;;;;;;;23.38;7.38;;;;;;;8.28;98.97;67696.97;6032343;23;20047;-85
2022/05/08 05:23:42;;;;;;;19.73;7.93;;;;;;;8.34;98.24;67703.19;6008869;23;20019;-87
2022/05/08 05:26:07;;;;;;;23.75;7.45;;;;;;;8.32;98.73;67701.50;6033473;23;20022;-85
2022/05/08 05:28:32;;;;;;;19.42;7.47;;;;;;;8.43;97.76;67715.50;6029800;23;20094;-86
2022/05/08 05:30:58;;;;;;;24.50;7.88;;;;;;;;;;6032796;23;20041;-85
2022/05/08 05:33:23;;;;;;;21.13;7.90;;;;;;;8.44;97.15;67711.91;6035916;23;20027;-86
2022/05/08 05:35:48;;;;;;;15.38;7.75;;;;;;;8.54;96.56;67727.97;6033250;23;20015;-85
2022/05/08 05:38:14;;;;;;;20.65;7.60;;;;;;;8.58;96.42;67732.50;6035289;23;20042;-86
2022/05/08 05:40:39;;;;;;;20.95;6.82;;;;;;;8.65;96.29;67735.13;6010320;23;20023;-84
2022/05/08 05:43:04;;;;;;;22.20;6.93;;;;;;;8.59;96.04;67728.34;6032957;23;20054;-85
2022/05/08 05:45:30;;;;;;;24.35;7.97;;;;;;;8.67;95.59;67737.41;6033008;23;20020;-85
2022/05/08 05:47:59;;;;;;;23.52;7.80;;;;;;;8.73;94.71;67746.84;6032497;23;20016;-86
2022/05/08 05:50:25;;;;;;;24.40;8.10;;;;;;;8.72;94.86;67742.50;6030950;23;20018;-85
2022/05/08 05:52:52;;;;;;;20.60;6.50;;;;;;;8.89;94.18;67763.84;6009015;23;20075;-86
2022/05/08 05:55:19;;;;;;;19.45;7.18;;;;;;;8.92;93.16;67769.91;6007881;23;20541;-85
2022/05/08 05:57:44;;;;;;;21.77;7.22;;;;;;;8.92;93.22;67767.25;6036076;23;20026;-86
2022/05/08 06:00:12;;;;;;;17.75;6.15;;;;;;;9.05;92.78;67779.31;6009337;23;20023;-85
2022/05/08 06:02:40;;;;;;;15.88;6.75;;;;;;;9.11;91.63;67785.56;6006878;23;20098;-85
2022/05/08 06:05:06;;;;;;;18.92;6.38;;;;;;;9.16;91.18;67791.78;6032232;23;20017;-85
2022/05/08 06:07:36;;;;;;;16.73;5.60;;;;;;;9.24;90.43;67806.19;6006593;23;20020;-87
2022/05/08 06:10:03;;;;;;;17.60;5.85;;;;;;;9.31;88.95;67807.66;6030575;23;20058;-85
2022/05/08 06:12:29;;;;;;;21.98;6.10;;;;;;;9.30;89.04;67814.50;6007060;23;20019;-86
2022/05/08 06:14:54;;;;;;;18.13;6.10;;;;;;;9.40;87.48;67820.53;6032352;23;20022;-86
2022/05/08 06:17:19;;;;;;;19.02;5.72;;;;;;;9.51;87.78;67830.34;6029332;23;20039;-86
2022/05/08 06:19:45;;;;;;;16.40;6.53;;;;;;;9.59;87.43;67844.72;6006946;23;20125;-86
2022/05/08 06:22:10;;;;;;;18.83;6.13;;;;;;;9.59;87.15;67844.72;6007988;23;20031;-86
2022/05/08 06:24:36;;;;;;;18.88;5.35;;;;;;;9.69;87.72;67850.75;6031089;23;20357;-86
2022/05/08 06:27:01;;;;;;;17.35;6.15;;;;;;;;;;6031345;23;20015;-85
2022/05/08 06:29:27;;;;;;;16.05;5.40;;;;;;;9.73;85.59;67856.81;6032364;23;20030;-86
2022/05/08 06:31:53;;;;;;;16.27;4.75;;;;;;;;;;6033375;23;20803;-85
2022/05/08 06:34:19;;;;;;;19.38;5.88;;;;;;;9.88;84.85;67871.72;6035860;23;20023;-86
2022/05/08 06:36:45;;;;;;;11.40;4.40;;;;;;;10.03;85.05;67887.59;6034215;23;20427;-86
2022/05/08 06:39:10;;;;;;;16.10;5.38;;;;;;;10.14;84.38;67900.66;6034257;23;20019;-85
2022/05/08 06:41:36;;;;;;;19.90;5.05;;;;;;;;;;6036324;23;20024;-85
2022/05/08 06:44:02;;;;;;;15.82;5.22;;;;;;;10.31;82.67;67918.84;6034876;23;20019;-85
2022/05/08 06:46:31;;;;;;;13.80;5.63;;;;;;;10.31;81.33;67921.50;6009405;23;20015;-86
2022/05/08 06:48:57;;;;;;;14.90;5.07;;;;;;;10.29;82.33;67916.56;6036950;23;20098;-84
2022/05/08 06:51:22;;;;;;;13.95;5.15;;;;;;;10.26;82.15;67915.78;6036247;23;20370;-84
2022/05/08 06:53:47;;;;;;;21.95;5.35;;;;;;;10.42;82.02;67931.31;6037105;23;20035;-84
2022/05/08 06:56:13;;;;;;;16.17;5.30;;;;;;;10.46;80.81;67938.50;6036481;23;20026;-84
2022/05/08 07:01:42;;;;;;;16.30;5.03;;;;;;;10.40;80.01;67931.69;6035774;23;20034;-84
2022/05/08 07:04:09;;;;;;;15.93;4.70;;;;;;;10.46;79.48;67941.16;6036376;23;20027;-84
2022/05/08 07:06:35;;;;;;;15.07;4.40;;;;;;;10.57;79.73;67948.31;6036277;23;20563;-84
2022/05/08 07:09:02;;;;;;;13.27;4.38;;;;;;;10.63;78.89;67959.91;6012477;23;20015;-84
2022/05/08 07:11:28;;;;;;;12.43;4.40;;;;;;;10.62;78.49;67948.13;6036546;23;20027;-84
2022/05/08 07:13:53;;;;;;;13.20;4.38;;;;;;;10.57;78.31;67953.66;6037251;23;20389;-83
2022/05/08 07:16:19;;;;;;;17.95;4.80;;;;;;;10.76;79.13;67964.00;6036697;23;20015;-84
2022/05/08 07:18:44;;;;;;;11.88;3.90;;;;;;;;;;6039361;23;20039;-84
2022/05/08 07:21:09;;;;;;;12.88;4.10;;;;;;;10.78;77.34;67971.59;6039102;23;20050;-84
2022/05/08 07:23:35;;;;;;;11.30;3.95;;;;;;;10.89;76.49;67988.84;6039059;23;20446;-83
2022/05/08 07:26:01;;;;;;;11.35;4.22;;;;;;;10.84;76.47;67981.06;6038741;23;20331;-83
2022/05/08 07:28:28;;;;;;;15.65;3.35;;;;;;;11.00;76.39;67995.44;6009199;23;20078;-84
2022/05/08 07:30:53;;;;;;;12.50;3.72;;;;;;;11.09;76.42;68005.09;6037576;23;20015;-84
2022/05/08 07:33:19;;;;;;;13.90;4.25;;;;;;;;;;6037405;23;20053;-84
2022/05/08 07:38:30;;;;;;;12.85;4.85;;;;;;;11.19;75.31;68021.75;6048096;23;20098;-84
2022/05/08 07:40:57;;;;;;;15.18;4.00;;;;;;;11.20;74.50;68020.81;6049742;23;20030;-83
2022/05/08 07:43:23;;;;;;;10.00;3.42;;;;;;;11.27;75.21;68028.19;6033315;23;20049;-83
2022/05/08 07:45:48;;;;;;;13.32;4.25;;;;;;;11.43;75.33;68043.69;6032574;23;20023;-84
2022/05/08 07:48:16;;;;;;;10.45;3.58;;;;;;;11.35;74.42;68037.28;6033116;23;20019;-84
2022/05/08 07:50:41;;;;;;;9.38;3.78;;;;;;;;;;6031895;23;20232;-88
2022/05/08 07:53:06;;;;;;;13.88;3.95;;;;;;;11.48;73.22;68051.47;6031525;23;20513;-84
2022/05/08 07:55:32;;;;;;;13.63;4.70;;;;;;;11.48;74.31;68051.47;6007911;23;20030;-84
2022/05/08 07:57:57;;;;;;;13.40;4.28;;;;;;;11.51;73.69;68052.78;6009556;23;20026;-84
2022/05/08 08:00:23;;;;;;;8.52;3.95;;;;;;;11.58;73.07;68062.25;6033086;23;20015;-83
2022/05/08 08:02:48;;;;;;;12.70;4.22;;;;;;;11.53;72.08;68057.13;6033043;23;20027;-84
2022/05/08 08:05:14;;;;;;;10.73;3.90;;;;;;;11.62;71.68;68064.13;6018289;23;20025;-84
2022/05/08 08:07:39;;;;;;;11.00;3.83;;;;;;;;;;6060519;23;20069;-84
2022/05/08 08:10:05;;;;;;;11.00;3.85;;;;;;;11.87;73.19;68091.97;6062316;23;20034;-84
2022/05/08 08:12:31;;;;;;;13.75;4.43;;;;;;;12.04;72.23;68105.41;6084501;23;20019;-83
2022/05/08 08:14:57;;;;;;;11.55;3.72;;;;;;;12.08;72.23;68115.28;6063034;23;20029;-84
2022/05/08 08:17:22;;;;;;;13.52;4.13;;;;;;;12.06;72.43;68116.25;6061042;23;20015;-84
2022/05/08 08:19:48;;;;;;;11.90;4.45;;;;;;;12.11;71.55;68118.69;6064312;23;20022;-83
2022/05/08 08:22:14;;;;;;;12.20;4.07;;;;;;;12.09;70.96;68119.09;6064674;23;20473;-84
2022/05/08 08:24:40;;;;;;;12.30;5.07;;;;;;;12.16;70.76;68124.38;6063082;23;20030;-83
2022/05/08 08:27:07;;;;;;;14.73;4.63;;;;;;;12.06;70.12;68116.25;6060004;23;20018;-83
2022/05/08 08:29:32;;;;;;;11.15;3.72;;;;;;;12.14;69.03;68122.09;6061538;23;20205;-83
2022/05/08 08:31:58;;;;;;;13.43;4.22;;;;;;;12.06;70.11;68107.69;6062931;23;20021;-82
2022/05/08 08:34:23;;;;;;;12.00;4.70;;;;;;;12.13;69.68;68121.53;6064019;23;20019;-84
2022/05/08 08:36:49;;;;;;;14.07;4.72;;;;;;;;;;6064260;23;20018;-83
2022/05/08 08:39:15;;;;;;;12.50;3.97;;;;;;;12.22;68.47;68130.63;6063207;23;20025;-84
2022/05/08 08:41:42;;;;;;;11.68;4.05;;;;;;;;;;6065233;23;20023;-84
2022/05/08 08:49:51;;;;;;;15.15;4.50;;;;;;;12.61;68.34;68174.38;6063159;23;20045;-84
2022/05/08 08:52:17;;;;;;;14.02;3.75;;;;;;;;;;6064761;23;20019;-83
2022/05/08 08:54:43;;;;;;;16.90;4.18;;;;;;;12.69;69.37;68183.47;6065977;23;20045;-84
2022/05/08 08:57:08;;;;;;;14.10;4.30;;;;;;;12.64;66.85;68177.78;6059593;23;20015;-84
2022/05/08 08:59:34;;;;;;;10.32;3.88;;;;;;;12.69;68.64;68178.13;6059803;23;20015;-84
2022/05/08 09:01:59;;;;;;;9.75;3.55;;;;;;;12.79;66.66;68194.81;6061368;23;20480;-84
2022/05/08 09:04:25;;;;;;;12.95;3.85;;;;;;;13.03;65.67;68215.63;6058972;23;20018;-83
2022/05/08 09:06:50;;;;;;;13.30;4.00;;;;;;;;;;6058906;23;20708;-84
2022/05/08 09:09:26;;;;;;;11.83;4.30;;;;;;;13.16;64.70;68235.19;6058031;23;20330;-84
2022/05/08 09:11:53;;;;;;;9.73;3.78;;;;;;;;;;6037460;23;20243;-84
2022/05/08 09:14:27;;;;;;;11.73;4.15;;;;;;;;;;6065033;23;20087;-84
2022/05/08 09:16:53;;;;;;;12.23;4.00;;;;;;;13.15;64.74;68228.72;6065460;23;20402;-84
2022/05/08 09:19:29;;;;;;;12.02;4.00;;;;;;;;;;6070692;23;20015;-83
2022/05/08 09:21:58;;;;;;;9.73;3.60;;;;;;;13.65;64.02;68289.81;6017176;23;20062;-83
2022/05/08 09:24:23;;;;;;;13.68;4.72;;;;;;;13.49;61.71;68267.41;6070895;23;20039;-83
2022/05/08 09:26:50;;;;;;;13.07;4.28;;;;;;;13.43;62.56;68265.91;6029720;23;20019;-84
2022/05/08 09:29:22;;;;;;;11.18;4.03;;;;;;;13.39;61.62;68261.38;6064911;23;20746;-83
2022/05/08 09:31:47;;;;;;;13.20;4.28;;;;;;;;;;6059038;23;20039;-83
2022/05/08 09:34:13;;;;;;;14.73;4.20;;;;;;;13.44;63.14;68261.16;6061655;23;20023;-83
2022/05/08 09:36:38;;;;;;;10.73;3.38;;;;;;;;;;6057681;23;20083;-84
2022/05/08 09:39:05;;;;;;;17.50;4.03;;;;;;;13.81;62.78;68307.44;6058574;23;20039;-82
2022/05/08 09:41:38;;;;;;;12.80;4.55;;;;;;;13.65;62.15;68290.38;6056917;23;20799;-85
2022/05/08 09:44:10;;;;;;;12.10;3.85;;;;;;;13.85;60.99;68312.56;6063871;23;20026;-84
2022/05/08 09:46:43;;;;;;;11.63;3.80;;;;;;;13.79;58.32;68305.75;6061191;23;20397;-84
2022/05/08 09:49:11;;;;;;;11.77;3.28;;;;;;;13.89;58.99;68317.13;6064333;23;20107;-84
2022/05/08 09:51:37;;;;;;;12.57;4.38;;;;;;;13.86;59.04;68313.13;6064300;23;20082;-83
2022/05/08 09:54:02;;;;;;;12.30;3.20;;;;;;;14.03;59.83;68334.59;6064720;23;20065;-84
2022/05/08 09:56:28;;;;;;;13.52;4.15;;;;;;;14.51;58.83;68380.63;6061894;23;20018;-84
2022/05/08 09:58:54;;;;;;;10.60;3.50;;;;;;;14.43;58.36;68377.44;6088868;23;20038;-85
2022/05/08 10:01:19;;;;;;;6.88;3.38;;;;;;;14.34;56.10;68366.63;6062932;23;20019;-83
2022/05/08 10:03:46;;;;;;;12.00;3.58;;;;;;;;;;6062464;23;20457;-83
2022/05/08 10:06:12;;;;;;;12.02;3.28;;;;;;;14.54;54.91;68383.50;6061308;23;20037;-83
2022/05/08 10:08:38;;;;;;;10.13;3.17;;;;;;;;;;6064577;23;20042;-84
2022/05/08 10:13:53;;;;;;;11.60;3.28;;;;;;;;;;6065664;23;20030;-83
2022/05/08 10:16:55;;;;;;;9.80;3.22;;;;;;;14.95;55.56;68429.03;6064081;23;20034;-84
2022/05/08 10:19:27;;;;;;;9.27;3.03;;;;;;;14.83;55.41;68421.31;6064630;23;20026;-83
2022/05/08 10:24:34;;;;;;;5.90;2.57;;;;;;;15.22;55.44;68459.78;6067020;23;20026;-83
2022/05/08 10:27:14;;;;;;;14.80;3.13;;;;;;;15.36;52.69;68472.47;6065510;23;20043;-83
2022/05/08 10:29:40;;;;;;;9.85;3.10;;;;;;;15.72;55.54;68520.44;6063658;23;20018;-83
2022/05/08 10:32:13;;;;;;;13.60;4.38;;;;;;;15.51;54.03;68492.25;6066179;23;20096;-84
2022/05/08 10:34:39;;;;;;;7.30;2.67;;;;;;;15.68;52.15;68515.84;6062729;23;20022;-83
2022/05/08 10:37:13;;;;;;;8.52;3.15;;;;;;;15.79;54.40;68523.03;6066143;23;20022;-84
2022/05/08 10:39:43;;;;;;;11.45;3.33;;;;;;;15.64;52.70;68505.91;6066986;23;20023;-83
2022/05/08 10:42:27;;;;;;;13.80;3.30;;;;;;;;;;6089059;23;20033;-84
2022/05/08 10:44:52;;;;;;;9.70;3.03;;;;;;;15.43;51.22;68482.56;6067408;23;20054;-83
2022/05/08 10:47:33;;;;;;;12.32;3.03;;;;;;;15.51;53.37;68491.69;6065117;23;20023;-84
2022/05/08 10:49:58;;;;;;;11.45;3.47;;;;;;;;;;6064561;23;20023;-83
2022/05/08 10:52:23;;;;;;;7.53;2.90;;;;;;;;;;6065232;23;20015;-84
2022/05/08 10:55:05;;;;;;;10.90;3.13;;;;;;;15.75;51.89;68524.41;6065013;23;20070;-83
2022/05/08 10:57:35;;;;;;;9.68;2.72;;;;;;;15.63;51.33;68502.09;6054401;23;20250;-84
2022/05/08 11:00:03;;;;;;;10.48;2.67;;;;;;;15.63;50.93;68505.34;6090029;23;20023;-83
2022/05/08 11:02:57;;;;;;;11.63;3.17;;;;;;;;;;6062364;23;20109;-84
2022/05/08 11:05:23;;;;;;;6.40;2.70;;;;;;;15.70;50.90;68512.78;6055238;23;20023;-83
2022/05/08 11:07:49;;;;;;;9.07;2.20;;;;;;;15.66;50.57;68508.22;6078812;23;20019;-83
2022/05/08 11:10:17;;;;;;;9.32;2.75;;;;;;;15.87;50.42;68532.16;6072275;23;20018;-83
2022/05/08 11:12:59;;;;;;;9.32;2.70;;;;;;;16.19;48.98;68564.78;6064339;23;20324;-83
2022/05/08 11:15:29;;;;;;;5.65;1.55;;;;;;;16.51;50.85;68602.81;6063867;23;20019;-83
2022/05/08 11:18:24;;;;;;;7.20;2.50;;;;;;;16.76;50.52;68630.75;6064647;23;20022;-83
2022/05/08 11:20:57;;;;;;;8.63;2.70;;;;;;;;;;6068342;23;20027;-83
2022/05/08 11:23:31;;;;;;;7.40;1.92;;;;;;;16.76;48.88;68630.75;6067391;23;20019;-83
2022/05/08 11:26:03;;;;;;;8.20;2.20;;;;;;;16.85;48.85;68641.03;6065852;23;20065;-84
2022/05/08 11:28:30;;;;;;;6.85;2.47;;;;;;;17.05;48.97;68661.16;6067620;23;20029;-83
2022/05/08 11:30:57;;;;;;;7.25;2.30;;;;;;;17.07;49.62;68662.88;6071471;23;20046;-83
2022/05/08 11:36:28;;;;;;;11.48;3.10;;;;;;;17.11;50.81;68664.75;6070296;23;20066;-83
2022/05/08 11:38:58;;;;;;;7.60;2.20;;;;;;;;;;6069303;23;20019;-83
2022/05/08 11:41:26;;;;;;;8.98;3.00;;;;;;;17.21;46.01;68676.16;6070867;23;20394;-83
2022/05/08 11:43:55;;;;;;;7.65;2.78;;;;;;;;;;6070542;23;20011;-83
2022/05/08 11:46:32;;;;;;;5.72;2.22;;;;;;;16.74;46.73;68629.03;6070952;23;20018;-84
2022/05/08 11:48:58;;;;;;;5.53;2.10;;;;;;;;;;6048307;23;20812;-84
2022/05/08 11:51:23;;;;;;;6.10;2.55;;;;;;;;;;6070533;23;20019;-84
2022/05/08 11:53:50;;;;;;;5.90;2.00;;;;;;;16.97;45.45;68654.72;6071430;23;20042;-84
2022/05/08 11:56:30;;;;;;;8.07;2.28;;;;;;;16.75;46.01;68629.63;6073004;23;20018;-83
2022/05/08 11:58:57;;;;;;;9.77;2.30;;;;;;;17.37;46.46;68699.78;6048081;23;20023;-83
2022/05/08 12:01:23;;;;;;;5.50;2.00;;;;;;;17.59;44.69;68721.63;6065972;23;20058;-83
2022/05/08 12:03:48;;;;;;;6.95;2.45;;;;;;;17.62;45.09;68732.56;6064257;23;20039;-83
2022/05/08 12:06:14;;;;;;;5.63;1.90;;;;;;;;;;6042369;23;20023;-83
2022/05/08 12:08:39;;;;;;;6.93;2.20;;;;;;;17.43;42.21;68710.88;6031128;23;20669;-83
2022/05/08 12:11:05;;;;;;;5.32;1.90;;;;;;;;;;6030288;23;20106;-83
2022/05/08 12:13:34;;;;;;;6.97;2.60;;;;;;;17.97;44.28;68763.28;6030754;23;20523;-83